Big Bear Station Historical Data
Daily Summary for December 07, 2017 Units:  English    Metric   Both
« Previous Day
Next Day »
Daily Weekly Monthly Yearly Custom
  High: Low: Average:
Temperature: 43.2 °F 27.1 °F 34.3 °F
Dew Point: 13.0 °F -3.2 °F 4.2 °F
Humidity: 35 % 19 % 28 %
Wind Speed: 9.9 mph 0.0 mph 2.2 mph
Wind Gust: -999.0 mph - -
Wind:- - SW
Pressure: 30.44 in 30.34 in -
Precipitation: 0.00 in    
Historical Graphs
 
 
Tabular Data for December 07, 2017
Time Temperature Dew Point Pressure Wind Wind Speed Wind Gust Humidity Rainfall Rate (Hourly)
00:04 30.0 °F 2.3 °F 30.35 in Calm   -999.0 mph 30 % 0 in
00:20 29.8 °F 2.8 °F 30.35 in NNW 1.7 mph -999.0 mph 31 % 0 in
00:35 29.8 °F 2.8 °F 30.35 in West 1.7 mph -999.0 mph 31 % 0 in
00:50 30.2 °F 1.7 °F 30.35 in WSW 1.7 mph -999.0 mph 29 % 0 in
01:06 30.2 °F 1.0 °F 30.35 in Calm   -999.0 mph 28 % 0 in
01:21 30.6 °F 1.3 °F 30.34 in Calm   -999.0 mph 28 % 0 in
01:36 30.2 °F 1.0 °F 30.34 in Calm   -999.0 mph 28 % 0 in
01:51 30.2 °F 1.7 °F 30.34 in Calm   -999.0 mph 29 % 0 in
02:07 30.0 °F 0.8 °F 30.34 in SSW 1.7 mph -999.0 mph 28 % 0 in
02:22 29.8 °F 0.6 °F 30.34 in Calm   -999.0 mph 28 % 0 in
02:37 30.0 °F 0.8 °F 30.34 in Calm   -999.0 mph 28 % 0 in
02:52 29.5 °F 1.1 °F 30.34 in WSW 1.1 mph -999.0 mph 29 % 0 in
03:07 29.5 °F 1.8 °F 30.34 in Calm   -999.0 mph 30 % 0 in
03:23 29.3 °F 1.7 °F 30.34 in Calm   -999.0 mph 30 % 0 in
03:38 29.5 °F 1.1 °F 30.34 in Calm   -999.0 mph 29 % 0 in
03:53 29.1 °F 1.5 °F 30.34 in ESE 2.2 mph -999.0 mph 30 % 0 in
04:08 29.5 °F 1.8 °F 30.35 in South 2.2 mph -999.0 mph 30 % 0 in
04:23 29.5 °F 1.1 °F 30.35 in ESE 1.1 mph -999.0 mph 29 % 0 in
05:09 28.6 °F 0.3 °F 30.35 in SE 1.1 mph -999.0 mph 29 % 0 in
05:24 28.0 °F -0.2 °F 30.35 in NW 1.7 mph -999.0 mph 29 % 0 in
05:39 28.2 °F 0.7 °F 30.35 in Calm   -999.0 mph 30 % 0 in
05:55 27.9 °F 0.4 °F 30.36 in NE 2.2 mph -999.0 mph 30 % 0 in
06:10 28.2 °F -0.8 °F 30.37 in Calm   -999.0 mph 28 % 0 in
06:25 27.3 °F -0.8 °F 30.38 in Calm   -999.0 mph 29 % 0 in
06:40 27.1 °F -0.3 °F 30.38 in Calm   -999.0 mph 30 % 0 in
06:56 27.3 °F 0.6 °F 30.38 in SE 2.2 mph -999.0 mph 31 % 0 in
07:11 27.3 °F 0.6 °F 30.39 in South 2.7 mph -999.0 mph 31 % 0 in
07:41 29.3 °F -1.4 °F 30.39 in SW 1.1 mph -999.0 mph 26 % 0 in
08:12 31.3 °F -3.2 °F 30.40 in WNW 1.7 mph -999.0 mph 22 % 0 in
08:27 32.9 °F -2.8 °F 30.40 in Calm   -999.0 mph 21 % 0 in
08:42 33.8 °F -2.1 °F 30.41 in NNW 2.7 mph -999.0 mph 21 % 0 in
08:58 35.2 °F -3.0 °F 30.41 in SW 4.7 mph -999.0 mph 19 % 0 in
09:13 36.5 °F -0.8 °F 30.41 in NW 9.4 mph -999.0 mph 20 % 0 in
09:28 37.0 °F -0.4 °F 30.41 in WNW 2.7 mph -999.0 mph 20 % 0 in
10:30 39.4 °F 1.6 °F 30.41 in East 3.7 mph -999.0 mph 20 % 0 in
11:00 39.6 °F 1.8 °F 30.40 in NW 7.8 mph -999.0 mph 20 % 0 in
11:16 40.3 °F 3.4 °F 30.40 in NNW 5.8 mph -999.0 mph 21 % 0 in
11:31 40.6 °F 4.7 °F 30.40 in South 1.7 mph -999.0 mph 22 % 0 in
11:46 41.5 °F 5.4 °F 30.39 in NE 3.7 mph -999.0 mph 22 % 0 in
12:01 42.3 °F 5.1 °F 30.39 in North 5.3 mph -999.0 mph 21 % 0 in
12:33 42.6 °F 6.4 °F 30.38 in NW 5.3 mph -999.0 mph 22 % 0 in
12:48 43.2 °F 7.9 °F 30.38 in North 3.7 mph -999.0 mph 23 % 0 in
13:03 42.6 °F 8.3 °F 30.38 in NW 3.2 mph -999.0 mph 24 % 0 in
13:49 42.1 °F 7.9 °F 30.37 in NW 4.7 mph -999.0 mph 24 % 0 in
14:20 41.0 °F 6.9 °F 30.37 in WNW 1.1 mph -999.0 mph 24 % 0 in
14:51 40.3 °F 7.2 °F 30.37 in West 9.9 mph -999.0 mph 25 % 0 in
15:07 39.9 °F 6.9 °F 30.38 in ENE 2.7 mph -999.0 mph 25 % 0 in
15:38 39.6 °F 8.3 °F 30.37 in East 1.1 mph -999.0 mph 27 % 0 in
15:53 39.0 °F 7.8 °F 30.38 in NE 4.7 mph -999.0 mph 27 % 0 in
16:08 38.7 °F 8.4 °F 30.38 in NE 1.1 mph -999.0 mph 28 % 0 in
16:24 38.5 °F 9.7 °F 30.38 in SW 3.2 mph -999.0 mph 30 % 0 in
16:54 37.9 °F 10.6 °F 30.39 in South 4.7 mph -999.0 mph 32 % 0 in
17:40 36.5 °F 8.7 °F 30.41 in SW 4.7 mph -999.0 mph 31 % 0 in
17:55 36.3 °F 9.2 °F 30.41 in West 2.7 mph -999.0 mph 32 % 0 in
18:11 37.0 °F 10.5 °F 30.42 in SSW 1.7 mph -999.0 mph 33 % 0 in
18:41 37.8 °F 12.6 °F 30.43 in East 1.1 mph -999.0 mph 35 % 0 in
18:56 38.3 °F 13.0 °F 30.43 in ESE 3.7 mph -999.0 mph 35 % 0 in
19:27 37.6 °F 11.7 °F 30.43 in North 2.7 mph -999.0 mph 34 % 0 in
19:42 37.2 °F 11.4 °F 30.43 in North 2.7 mph -999.0 mph 34 % 0 in
19:58 36.7 °F 10.9 °F 30.43 in SW 2.7 mph -999.0 mph 34 % 0 in
20:13 35.6 °F 9.3 °F 30.43 in SSW 1.7 mph -999.0 mph 33 % 0 in
20:28 34.7 °F 8.5 °F 30.43 in Calm   -999.0 mph 33 % 0 in
21:14 34.0 °F 6.5 °F 30.44 in Calm   -999.0 mph 31 % 0 in
21:29 34.2 °F 6.7 °F 30.44 in South 2.2 mph -999.0 mph 31 % 0 in
21:59 34.7 °F 6.4 °F 30.44 in Calm   -999.0 mph 30 % 0 in
22:30 35.2 °F 6.1 °F 30.44 in SSW 1.1 mph -999.0 mph 29 % 0 in
22:45 35.2 °F 6.8 °F 30.44 in South 1.1 mph -999.0 mph 30 % 0 in
23:00 35.4 °F 7.0 °F 30.44 in North 1.1 mph -999.0 mph 30 % 0 in
23:15 35.4 °F 7.7 °F 30.44 in Calm   -999.0 mph 31 % 0 in
23:31 35.8 °F 8.1 °F 30.44 in West 3.7 mph -999.0 mph 31 % 0 in
23:46 35.6 °F 7.9 °F 30.44 in SSE 2.7 mph -999.0 mph 31 % 0 in
Big Bear CA Weather
Compliments of Weather Underground - 1.25 mb